Time;durP1;ratioP1;P1;durP2;ratioP2;P2;SDS_P1;SDS_P2;PMS_P1;PMS_P2;Temp;Humidity;BMP_temperature;BMP_pressure;BME280_temperature;BME280_humidity;BME280_pressure;Samples;Min_cycle;Max_cycle;Signal;HPM_P1;HPM_P2
2024/03/20 00:00:49;;;;;;;3.33;2.85;;;;;;;6.76;100.00;98717.06;15287797;19;20353;-73
2024/03/20 00:06:14;;;;;;;3.45;2.85;;;;;;;6.70;100.00;98714.94;15291804;19;20335;-74
2024/03/20 00:11:40;;;;;;;6.13;3.40;;;;;;;6.60;100.00;98722.03;15285374;19;20035;-74
2024/03/20 00:17:07;;;;;;;3.65;2.95;;;;;;;6.46;100.00;98707.13;15285831;19;20018;-74
2024/03/20 00:22:32;;;;;;;5.43;3.30;;;;;;;6.35;100.00;98708.03;15291852;19;20029;-74
2024/03/20 00:28:00;;;;;;;4.82;3.30;;;;;;;6.24;100.00;98713.41;15285856;19;20478;-74
2024/03/20 00:33:24;;;;;;;5.22;3.55;;;;;;;5.99;100.00;98708.25;15288847;19;20017;-74
2024/03/20 00:38:51;;;;;;;4.72;3.55;;;;;;;5.90;100.00;98697.41;15293831;19;20014;-73
2024/03/20 00:44:18;;;;;;;4.22;3.30;;;;;;;5.91;100.00;98704.47;15289315;19;20347;-73
2024/03/20 00:49:42;;;;;;;3.88;3.00;;;;;;;5.95;100.00;98703.22;15293213;19;20508;-74
2024/03/20 00:55:13;;;;;;;4.95;3.10;;;;;;;5.96;100.00;98707.59;15287346;19;20021;-74
2024/03/20 01:00:39;;;;;;;3.10;2.70;;;;;;;5.92;100.00;98695.47;15286896;19;20014;-74
2024/03/20 01:06:03;;;;;;;3.20;2.90;;;;;;;5.88;100.00;98688.66;15287573;19;20014;-73
2024/03/20 01:11:27;;;;;;;4.90;2.92;;;;;;;5.81;100.00;98688.31;15280021;19;20002;-74
2024/03/20 01:16:54;;;;;;;4.65;3.10;;;;;;;5.75;100.00;98684.31;15178391;19;2004124;-75
2024/03/20 01:22:17;;;;;;;4.18;3.10;;;;;;;5.71;100.00;98683.72;15285299;19;20014;-73
2024/03/20 01:27:41;;;;;;;3.33;3.03;;;;;;;5.66;100.00;98675.19;15281085;19;20010;-74
2024/03/20 01:33:07;;;;;;;3.63;3.15;;;;;;;5.62;100.00;98675.56;15275790;19;20018;-74
2024/03/20 01:38:31;;;;;;;4.28;3.20;;;;;;;5.57;100.00;98673.28;15283008;19;20022;-73
2024/03/20 01:43:56;;;;;;;4.55;3.33;;;;;;;5.53;100.00;98674.47;15287349;19;20017;-74
2024/03/20 01:49:22;;;;;;;4.20;3.40;;;;;;;5.50;100.00;98675.59;15289511;19;20007;-72
2024/03/20 01:54:45;;;;;;;4.68;3.33;;;;;;;5.44;100.00;98659.19;15284076;19;20019;-74
2024/03/20 02:00:12;;;;;;;4.43;3.42;;;;;;;5.43;100.00;98668.19;15278825;19;20014;-75
2024/03/20 02:05:39;;;;;;;4.28;3.60;;;;;;;5.39;100.00;98663.09;15277446;19;20010;-74
2024/03/20 02:11:03;;;;;;;4.03;3.42;;;;;;;5.37;100.00;98654.34;15024196;19;5001102;-74
2024/03/20 02:16:28;;;;;;;5.05;3.95;;;;;;;5.34;100.00;98659.09;15284533;19;20031;-74
2024/03/20 02:21:55;;;;;;;4.68;3.90;;;;;;;5.28;100.00;98665.78;15280703;19;20068;-75
2024/03/20 02:27:18;;;;;;;5.65;3.58;;;;;;;5.31;100.00;98662.00;15280386;19;20619;-75
2024/03/20 02:32:42;;;;;;;4.32;3.60;;;;;;;5.32;100.00;98661.88;15281020;19;20018;-75
2024/03/20 02:38:08;;;;;;;6.20;3.97;;;;;;;5.33;100.00;98673.44;15279845;19;20057;-73
2024/03/20 02:43:33;;;;;;;4.15;3.65;;;;;;;5.28;100.00;98670.25;15283398;19;20014;-73
2024/03/20 02:48:56;;;;;;;4.90;3.70;;;;;;;5.17;100.00;98669.28;15299320;19;20505;-73
2024/03/20 02:54:30;;;;;;;4.88;3.80;;;;;;;5.06;100.00;98669.28;15293014;19;20026;-73
2024/03/20 02:59:53;;;;;;;4.00;3.50;;;;;;;4.86;100.00;98670.81;15290377;19;20469;-73
2024/03/20 03:05:18;;;;;;;3.67;3.38;;;;;;;4.66;100.00;98675.88;15292459;19;20019;-74
2024/03/20 03:10:47;;;;;;;3.97;3.58;;;;;;;4.53;100.00;98669.78;15292174;19;20034;-73
2024/03/20 03:16:12;;;;;;;4.35;3.78;;;;;;;4.41;100.00;98676.91;15296444;19;20025;-81
2024/03/20 03:21:35;;;;;;;5.10;3.95;;;;;;;4.26;100.00;98684.22;15303180;19;20018;-77
2024/03/20 03:27:02;;;;;;;4.60;4.00;;;;;;;4.12;100.00;98683.44;15290844;19;20106;-82
2024/03/20 03:32:26;;;;;;;7.03;4.30;;;;;;;4.00;100.00;98692.34;15307910;19;20035;-82
2024/03/20 03:37:51;;;;;;;4.47;4.03;;;;;;;3.87;100.00;98684.41;15360471;19;20018;-80
2024/03/20 03:43:17;;;;;;;4.60;4.10;;;;;;;3.74;100.00;98689.78;15329791;19;20022;-80
2024/03/20 03:48:43;;;;;;;5.55;4.30;;;;;;;3.75;100.00;98693.28;15318153;19;20082;-81
2024/03/20 03:54:06;;;;;;;5.15;4.60;;;;;;;3.78;100.00;98687.75;15310648;19;20036;-81
2024/03/20 03:59:33;;;;;;;7.38;4.85;;;;;;;3.82;100.00;98694.56;15318737;19;20018;-80
2024/03/20 04:04:58;;;;;;;5.70;4.53;;;;;;;3.84;100.00;98696.16;15339136;19;20010;-83
2024/03/20 04:10:22;;;;;;;5.63;4.95;;;;;;;3.85;100.00;98694.31;15354809;19;20015;-79
2024/03/20 04:15:52;;;;;;;5.28;4.78;;;;;;;3.88;100.00;98698.59;15300765;19;20033;-80
2024/03/20 04:21:17;;;;;;;7.70;4.65;;;;;;;3.89;100.00;98705.59;15295647;19;20482;-82
2024/03/20 04:26:40;;;;;;;6.10;4.63;;;;;;;3.88;100.00;98702.09;15292152;19;20012;-79
2024/03/20 04:32:07;;;;;;;6.10;5.32;;;;;;;3.83;100.00;98699.78;15294045;19;20052;-79
2024/03/20 04:37:30;;;;;;;6.28;5.35;;;;;;;3.81;100.00;98698.19;15293423;19;20025;-80
